Time;durP1;ratioP1;P1;durP2;ratioP2;P2;SDS_P1;SDS_P2;PMS_P1;PMS_P2;Temp;Humidity;BMP_temperature;BMP_pressure;BME280_temperature;BME280_humidity;BME280_pressure;Samples;Min_cycle;Max_cycle;Signal;HPM_P1;HPM_P2
2023/07/25 00:01:31;;;;;;;20.63;13.13;;;;;;;26.66;53.36;99041.50;5072172;28;20224;-68
2023/07/25 00:03:59;;;;;;;17.37;12.87;;;;;;;26.60;53.46;99041.94;5071653;28;20269;-68
2023/07/25 00:06:26;;;;;;;18.37;12.07;;;;;;;26.64;53.35;99046.47;5064520;28;20208;-69
2023/07/25 00:08:52;;;;;;;19.33;13.37;;;;;;;26.68;53.43;99041.19;5051791;28;20197;-68
2023/07/25 00:11:19;;;;;;;19.20;12.30;;;;;;;26.63;53.67;99044.06;5054118;28;20250;-69
2023/07/25 00:13:46;;;;;;;15.03;12.90;;;;;;;26.64;53.39;99051.09;5052095;28;20201;-68
2023/07/25 00:16:12;;;;;;;18.87;12.03;;;;;;;26.72;53.32;99044.91;5065942;28;20254;-69
2023/07/25 00:18:39;;;;;;;16.60;12.27;;;;;;;26.79;53.09;99045.28;5072096;28;20192;-69
2023/07/25 00:21:07;;;;;;;17.57;12.07;;;;;;;26.68;53.22;99033.03;5071886;28;20337;-70
2023/07/25 00:23:34;;;;;;;12.97;11.73;;;;;;;26.79;53.24;99037.09;5071203;28;20788;-70
2023/07/25 00:26:00;;;;;;;15.03;12.77;;;;;;;26.84;53.22;99050.59;5071794;28;20622;-69
2023/07/25 00:28:27;;;;;;;15.37;12.17;;;;;;;26.77;53.11;99033.88;5071925;28;20188;-69
2023/07/25 00:30:53;;;;;;;16.83;11.97;;;;;;;26.86;53.25;99048.38;5071959;28;20273;-69
2023/07/25 00:33:20;;;;;;;17.33;11.83;;;;;;;26.87;52.95;99041.78;5071212;28;20253;-70
2023/07/25 00:35:53;;;;;;;17.63;12.13;;;;;;;26.82;53.20;99036.47;5072241;28;20285;-68
2023/07/25 00:38:21;;;;;;;20.17;12.60;;;;;;;26.45;54.44;99050.47;5071658;28;20196;-68
2023/07/25 00:40:48;;;;;;;17.00;12.17;;;;;;;26.49;54.63;99054.16;5072002;28;20195;-69
2023/07/25 00:43:15;;;;;;;16.53;12.30;;;;;;;26.51;54.54;99054.69;5071984;28;20334;-69
2023/07/25 00:45:41;;;;;;;16.50;12.00;;;;;;;26.55;54.29;99050.22;5071392;28;20245;-70
2023/07/25 00:48:08;;;;;;;13.00;11.70;;;;;;;26.51;54.74;99055.50;5071555;28;20729;-70
2023/07/25 00:50:35;;;;;;;17.43;12.33;;;;;;;26.47;54.99;99054.50;5071898;28;20268;-70
2023/07/25 00:53:03;;;;;;;15.90;11.50;;;;;;;26.48;54.94;99055.28;5071420;28;20725;-70
2023/07/25 00:55:31;;;;;;;15.33;11.43;;;;;;;26.46;55.52;99063.78;5071773;28;20192;-70
2023/07/25 00:57:57;;;;;;;16.10;12.30;;;;;;;26.29;56.72;99063.66;5071511;28;20199;-71
2023/07/25 01:00:24;;;;;;;14.53;11.77;;;;;;;26.24;56.94;99060.22;5071275;28;20261;-70
2023/07/25 01:02:51;;;;;;;15.77;12.23;;;;;;;26.26;57.18;99074.34;5071236;28;20664;-70
2023/07/25 01:05:18;;;;;;;12.23;11.10;;;;;;;26.16;57.96;99063.69;5071653;28;20217;-70
2023/07/25 01:07:45;;;;;;;12.90;11.43;;;;;;;26.24;57.37;99063.78;5053064;28;20193;-70
2023/07/25 01:10:14;;;;;;;13.67;12.17;;;;;;;26.29;57.58;99062.84;5053136;28;20224;-71
2023/07/25 01:12:42;;;;;;;17.83;11.83;;;;;;;26.34;57.75;99049.13;5074244;28;20276;-70
2023/07/25 01:15:10;;;;;;;14.80;11.47;;;;;;;26.34;57.92;99057.28;5075008;28;20226;-70
2023/07/25 01:17:36;;;;;;;18.30;12.93;;;;;;;26.20;58.57;99064.69;5075177;28;20250;-70
2023/07/25 01:20:06;;;;;;;17.97;13.63;;;;;;;26.15;58.94;99071.06;5075432;28;20253;-70
2023/07/25 01:22:37;;;;;;;24.63;15.60;;;;;;;26.22;58.32;99063.28;5074101;28;20200;-70
2023/07/25 01:25:08;;;;;;;19.47;15.43;;;;;;;26.29;58.02;99068.31;5075395;28;20250;-71
2023/07/25 01:27:34;;;;;;;27.27;17.23;;;;;;;26.23;57.67;99064.06;5074775;28;20184;-70
2023/07/25 01:30:01;;;;;;;22.03;16.30;;;;;;;26.18;58.13;99059.56;5074896;28;20228;-70
2023/07/25 01:32:28;;;;;;;23.87;17.23;;;;;;;26.18;58.09;99058.75;5074708;28;20663;-70
2023/07/25 01:34:54;;;;;;;24.27;16.53;;;;;;;26.15;58.56;99056.63;5073961;28;20772;-70
2023/07/25 01:37:21;;;;;;;20.23;15.83;;;;;;;26.16;58.61;99060.97;5074518;28;20228;-69
2023/07/25 01:39:47;;;;;;;20.73;15.70;;;;;;;26.17;58.21;99048.97;5075189;28;20204;-69
2023/07/25 01:42:16;;;;;;;18.20;14.97;;;;;;;26.15;58.76;99057.47;5074794;28;20252;-70
2023/07/25 01:44:42;;;;;;;19.27;15.47;;;;;;;26.16;59.01;99063.69;5074323;28;20255;-69
2023/07/25 01:47:09;;;;;;;18.43;14.30;;;;;;;26.11;58.44;99067.34;5074875;28;20192;-69
2023/07/25 01:49:36;;;;;;;17.70;14.63;;;;;;;26.08;58.88;99072.59;5074622;28;20192;-70
2023/07/25 01:52:02;;;;;;;16.60;14.80;;;;;;;25.98;59.21;99061.94;5074024;28;20238;-70
2023/07/25 01:54:29;;;;;;;23.43;15.57;;;;;;;25.93;59.40;99070.19;5074529;28;20261;-70
2023/07/25 01:56:56;;;;;;;19.90;15.50;;;;;;;25.95;59.43;99063.34;5074827;28;20207;-70
2023/07/25 01:59:24;;;;;;;20.07;14.57;;;;;;;25.98;59.20;99062.75;5074121;28;20200;-70
2023/07/25 02:01:50;;;;;;;19.67;14.43;;;;;;;25.88;59.04;99060.22;5074241;28;20625;-69
2023/07/25 02:04:17;;;;;;;19.13;14.93;;;;;;;25.92;59.29;99060.41;5074025;28;20551;-69
2023/07/25 02:06:44;;;;;;;20.23;14.43;;;;;;;25.87;59.00;99055.06;5074459;28;20196;-70
2023/07/25 02:09:11;;;;;;;15.27;12.37;;;;;;;25.78;58.09;99073.22;5073950;28;20250;-72
2023/07/25 02:11:37;;;;;;;10.10;9.07;;;;;;;25.81;53.02;99072.63;5074326;28;20228;-72
2023/07/25 02:14:04;;;;;;;17.80;12.30;;;;;;;25.95;55.27;99079.69;5073572;28;20257;-73
2023/07/25 02:16:36;;;;;;;11.87;10.33;;;;;;;26.06;50.25;99085.72;5074207;28;20245;-70
2023/07/25 02:19:03;;;;;;;11.27;10.23;;;;;;;26.15;49.06;99084.69;5073834;28;20218;-72
2023/07/25 02:21:30;;;;;;;17.97;11.47;;;;;;;26.33;49.18;99080.19;5073522;28;20191;-72
2023/07/25 02:23:56;;;;;;;11.87;10.27;;;;;;;26.49;48.58;99089.59;5072044;28;20582;-72
2023/07/25 02:26:23;;;;;;;12.77;11.03;;;;;;;26.59;50.23;99082.03;5073717;28;20630;-72
2023/07/25 02:28:50;;;;;;;17.03;13.20;;;;;;;26.71;51.54;99082.25;5073836;28;20246;-72
2023/07/25 02:31:16;;;;;;;16.37;11.53;;;;;;;26.78;51.16;99079.09;5073723;28;20224;-72
2023/07/25 02:33:44;;;;;;;15.23;12.23;;;;;;;26.87;50.71;99078.03;5073002;28;20192;-72
2023/07/25 02:36:11;;;;;;;20.83;12.77;;;;;;;26.96;50.96;99078.91;5073988;28;20236;-72
2023/07/25 02:38:38;;;;;;;21.47;13.97;;;;;;;27.02;52.70;99077.63;5073662;28;20192;-72
2023/07/25 02:41:04;;;;;;;24.17;13.80;;;;;;;27.09;50.95;99078.00;5073712;28;20196;-72
2023/07/25 02:43:31;;;;;;;22.17;13.63;;;;;;;27.10;52.43;99081.50;5072960;28;20203;-72
2023/07/25 02:45:58;;;;;;;25.00;14.27;;;;;;;27.13;52.48;99072.72;5073318;28;20223;-72
2023/07/25 02:48:26;;;;;;;18.43;13.53;;;;;;;27.20;51.15;99081.28;5073475;28;20196;-71
2023/07/25 02:50:54;;;;;;;23.20;13.90;;;;;;;27.27;51.37;99078.91;5073469;28;20279;-71
2023/07/25 02:53:20;;;;;;;23.87;14.40;;;;;;;27.35;50.82;99078.94;5073038;28;20200;-71
2023/07/25 02:55:47;;;;;;;26.73;14.43;;;;;;;27.39;51.08;99081.81;5072365;28;20659;-71
2023/07/25 02:58:14;;;;;;;20.93;15.60;;;;;;;27.42;51.00;99079.28;5072949;28;20620;-70
2023/07/25 03:00:41;;;;;;;20.80;13.33;;;;;;;27.43;50.74;99082.81;5072974;28;20635;-70
2023/07/25 03:03:08;;;;;;;27.80;15.00;;;;;;;27.40;50.70;99083.47;5073186;28;20265;-70
2023/07/25 03:05:35;;;;;;;27.33;15.13;;;;;;;27.30;51.81;99089.19;5073246;28;20188;-70
2023/07/25 03:08:03;;;;;;;29.60;14.83;;;;;;;27.21;51.43;99104.72;5072282;28;20192;-72
2023/07/25 03:10:30;;;;;;;23.07;14.47;;;;;;;27.18;51.32;99102.56;5072986;28;20219;-71
2023/07/25 03:12:56;;;;;;;22.97;14.27;;;;;;;27.17;51.66;99103.69;5073029;28;20254;-71
2023/07/25 03:15:23;;;;;;;18.50;14.30;;;;;;;27.14;51.35;99093.41;5073167;28;20196;-71
2023/07/25 03:17:50;;;;;;;21.00;13.50;;;;;;;27.15;51.39;99103.22;5072574;28;20195;-72
2023/07/25 03:20:17;;;;;;;25.23;14.60;;;;;;;27.07;51.88;99101.25;5072283;28;20350;-72
2023/07/25 03:22:43;;;;;;;28.20;15.10;;;;;;;26.96;51.85;99108.88;5072636;28;20189;-72
2023/07/25 03:25:11;;;;;;;18.47;13.27;;;;;;;27.01;51.95;99108.75;5072719;28;20192;-72
2023/07/25 03:27:38;;;;;;;26.03;13.97;;;;;;;27.12;51.52;99104.63;5072763;28;20218;-72
2023/07/25 03:30:06;;;;;;;24.50;15.57;;;;;;;27.19;51.96;99104.19;5071931;28;20196;-73
2023/07/25 03:32:33;;;;;;;25.90;15.50;;;;;;;27.31;51.45;99107.19;5072406;28;20564;-72
2023/07/25 03:35:00;;;;;;;26.93;17.13;;;;;;;27.43;51.44;99102.72;5072264;28;20231;-72
2023/07/25 03:37:26;;;;;;;21.73;17.20;;;;;;;27.54;52.10;99100.50;5072626;28;20200;-72
2023/07/25 03:39:54;;;;;;;29.03;17.57;;;;;;;27.62;51.86;99091.56;5071958;28;20256;-72
2023/07/25 03:42:22;;;;;;;26.83;17.23;;;;;;;27.71;52.11;99106.84;5071740;28;20748;-71
2023/07/25 03:44:49;;;;;;;20.40;15.37;;;;;;;27.77;51.85;99104.78;5072401;28;20195;-71
2023/07/25 03:47:15;;;;;;;24.17;15.47;;;;;;;27.88;51.93;99108.81;5072128;28;20690;-71
2023/07/25 03:49:42;;;;;;;21.60;14.37;;;;;;;27.81;52.98;99100.28;5072423;28;20253;-71
2023/07/25 03:52:10;;;;;;;20.37;15.13;;;;;;;27.72;53.86;99091.28;5071899;28;20255;-71
2023/07/25 03:54:36;;;;;;;22.50;14.17;;;;;;;27.66;53.83;99097.97;5072288;28;20200;-71
2023/07/25 03:57:04;;;;;;;19.23;14.33;;;;;;;27.71;53.68;99100.56;5071665;28;20200;-72
2023/07/25 03:59:32;;;;;;;18.17;13.40;;;;;;;27.73;53.57;99087.41;5071946;28;20187;-71
2023/07/25 04:01:59;;;;;;;16.73;13.77;;;;;;;27.73;53.63;99095.59;5071806;28;20196;-71
2023/07/25 04:04:26;;;;;;;16.87;14.23;;;;;;;27.88;52.48;99095.16;5072192;28;20188;-71
2023/07/25 04:06:52;;;;;;;30.23;15.60;;;;;;;28.02;52.17;99101.31;5071828;28;20237;-71
2023/07/25 04:09:19;;;;;;;26.33;14.57;;;;;;;28.27;51.46;99097.81;5072138;28;20278;-71
2023/07/25 04:11:46;;;;;;;29.80;14.27;;;;;;;28.63;50.45;99101.84;5071334;28;20211;-72
2023/07/25 04:14:12;;;;;;;32.00;15.07;;;;;;;29.03;49.76;99099.72;5072083;28;20192;-72
2023/07/25 04:16:40;;;;;;;27.23;14.50;;;;;;;29.27;48.85;99104.63;5072168;28;20249;-72
2023/07/25 04:19:07;;;;;;;23.47;14.50;;;;;;;29.60;46.83;99108.38;5071660;28;20191;-72
2023/07/25 04:21:34;;;;;;;22.63;13.90;;;;;;;30.04;45.89;99103.13;5071707;28;20737;-71
2023/07/25 04:24:00;;;;;;;26.90;17.00;;;;;;;30.38;44.82;99119.34;5070839;28;20625;-72
2023/07/25 04:26:27;;;;;;;25.83;15.23;;;;;;;30.60;44.68;99110.78;5072140;28;20196;-71
2023/07/25 04:28:54;;;;;;;49.17;19.30;;;;;;;30.85;44.08;99109.78;5072063;28;20246;-71
2023/07/25 04:31:20;;;;;;;25.33;17.60;;;;;;;31.00;43.31;99117.38;5071422;28;20272;-71
2023/07/25 04:33:48;;;;;;;35.57;17.30;;;;;;;30.99;43.56;99118.50;5071743;28;20223;-70
2023/07/25 04:36:15;;;;;;;26.33;16.70;;;;;;;30.91;43.03;99122.13;5072190;28;20717;-71
2023/07/25 04:38:42;;;;;;;23.10;15.57;;;;;;;31.17;42.79;99125.41;5071925;28;20188;-71
2023/07/25 04:41:08;;;;;;;18.60;14.43;;;;;;;31.47;41.71;99124.13;5071168;28;20195;-71
2023/07/25 04:43:35;;;;;;;25.10;15.95;;;;;;;31.81;41.39;99120.94;5071112;28;20434;-71
2023/07/25 04:46:02;;;;;;;23.00;15.20;;;;;;;32.43;39.73;99123.28;5072557;28;20275;-71
2023/07/25 04:48:28;;;;;;;26.37;15.43;;;;;;;32.76;38.98;99121.91;5075825;28;20191;-70
2023/07/25 04:50:56;;;;;;;28.87;16.07;;;;;;;32.75;38.93;99119.50;5075228;28;20711;-70
2023/07/25 04:53:23;;;;;;;33.87;16.00;;;;;;;32.96;38.95;99114.63;5074746;28;20188;-71
2023/07/25 04:55:50;;;;;;;31.33;16.90;;;;;;;33.18;38.24;99117.59;5075601;28;20192;-71
2023/07/25 04:58:16;;;;;;;28.27;14.90;;;;;;;33.58;37.04;99122.16;5075732;28;20260;-71
2023/07/25 05:00:43;;;;;;;24.10;15.38;;;;;;;33.80;36.80;99116.03;5075559;28;20253;-71
2023/07/25 05:03:10;;;;;;;30.98;14.50;;;;;;;34.23;36.15;99129.66;5075183;28;20196;-71
2023/07/25 05:05:37;;;;;;;31.77;15.40;;;;;;;34.58;35.32;99116.66;5073620;28;20686;-71
2023/07/25 05:08:05;;;;;;;20.83;13.68;;;;;;;34.81;34.90;99110.06;5069714;28;20196;-71
2023/07/25 05:10:32;;;;;;;28.48;13.93;;;;;;;35.24;34.11;99125.47;5075154;28;20188;-71
2023/07/25 05:12:59;;;;;;;25.42;13.48;;;;;;;35.53;33.62;99122.88;5075352;28;20196;-72
2023/07/25 05:15:25;;;;;;;17.05;12.15;;;;;;;35.91;32.94;99121.91;5075229;28;20196;-72
2023/07/25 05:17:52;;;;;;;26.95;12.68;;;;;;;35.67;33.57;99122.28;5074054;28;20184;-75
2023/07/25 05:20:19;;;;;;;20.92;12.98;;;;;;;35.79;32.42;99135.94;5074937;28;20196;-72
2023/07/25 05:22:45;;;;;;;17.95;12.90;;;;;;;36.60;31.47;99129.63;5075206;28;20253;-71
2023/07/25 05:25:13;;;;;;;20.00;13.00;;;;;;;36.74;32.01;99127.06;5075060;28;20196;-73
2023/07/25 05:27:40;;;;;;;17.60;11.98;;;;;;;36.98;31.61;99127.38;5074972;28;20626;-71
2023/07/25 05:30:07;;;;;;;13.27;10.27;;;;;;;36.65;31.37;99124.56;5074209;28;20200;-70
2023/07/25 05:32:34;;;;;;;23.73;13.85;;;;;;;36.41;32.08;99122.28;5074339;28;20771;-72
2023/07/25 05:35:01;;;;;;;17.27;11.30;;;;;;;36.32;32.18;99120.97;5074825;28;20290;-71
2023/07/25 05:37:35;;;;;;;20.70;12.02;;;;;;;36.38;31.84;99122.25;5074871;28;20257;-70
2023/07/25 05:40:02;;;;;;;15.30;12.40;;;;;;;36.40;31.63;99122.66;5074526;28;20180;-73
2023/07/25 05:42:30;;;;;;;31.70;16.13;;;;;;;37.03;31.08;99115.16;5073629;28;20727;-70
2023/07/25 05:44:58;;;;;;;21.55;13.15;;;;;;;37.28;30.85;99122.53;5074356;28;20262;-70
2023/07/25 05:47:25;;;;;;;31.20;14.65;;;;;;;37.33;30.31;99115.88;5074254;28;20199;-73
2023/07/25 05:49:52;;;;;;;27.35;13.70;;;;;;;37.58;30.48;99116.06;5072932;28;20188;-72
2023/07/25 05:52:18;;;;;;;26.83;13.27;;;;;;;38.13;29.93;99120.53;5073965;28;20277;-73
2023/07/25 05:54:45;;;;;;;12.43;10.88;;;;;;;37.71;29.79;99120.19;5072762;28;20667;-72
2023/07/25 05:57:12;;;;;;;13.15;10.32;;;;;;;37.82;30.31;99118.28;5073764;28;20200;-72
2023/07/25 05:59:42;;;;;;;15.05;10.23;;;;;;;37.81;30.20;99117.50;5073101;28;20195;-71
2023/07/25 06:02:09;;;;;;;18.48;10.88;;;;;;;37.79;30.15;99111.53;5074069;28;20278;-70
2023/07/25 06:04:36;;;;;;;16.08;9.65;;;;;;;37.95;30.33;99112.03;5073263;28;20753;-70
2023/07/25 06:07:02;;;;;;;14.02;10.50;;;;;;;37.84;30.24;99113.94;5060707;28;20578;-68
2023/07/25 06:09:29;;;;;;;18.45;9.40;;;;;;;37.90;30.30;99106.88;5056902;28;20687;-69
2023/07/25 06:11:56;;;;;;;15.75;9.60;;;;;;;37.70;30.31;99113.03;5073741;28;20386;-67
2023/07/25 06:14:23;;;;;;;15.48;10.60;;;;;;;37.79;30.52;99099.66;5073164;28;20281;-68
2023/07/25 06:16:51;;;;;;;15.57;8.75;;;;;;;37.89;30.17;99099.72;5073366;28;20192;-68
2023/07/25 06:19:18;;;;;;;12.77;9.95;;;;;;;37.95;29.96;99100.13;5072645;28;20682;-67
2023/07/25 06:21:44;;;;;;;11.82;9.52;;;;;;;37.83;29.93;99095.72;5070482;28;20197;-70
2023/07/25 06:24:11;;;;;;;14.23;10.32;;;;;;;37.50;30.82;99093.06;5071703;28;20191;-69
2023/07/25 06:26:38;;;;;;;9.75;8.50;;;;;;;37.54;30.98;99084.75;5068800;28;20278;-70
2023/07/25 06:29:05;;;;;;;14.98;8.40;;;;;;;38.10;30.35;99093.53;5070903;28;21005;-69
2023/07/25 06:31:31;;;;;;;13.07;8.35;;;;;;;38.30;29.53;99087.31;5070678;28;20231;-69
2023/07/25 06:33:59;;;;;;;14.45;8.75;;;;;;;38.70;29.01;99084.31;5070310;28;20200;-69
2023/07/25 06:36:26;;;;;;;16.33;8.85;;;;;;;38.90;28.56;99082.81;5071400;28;20196;-69
2023/07/25 06:38:53;;;;;;;14.10;8.98;;;;;;;38.81;28.56;99079.59;5070208;28;20203;-68
2023/07/25 06:41:19;;;;;;;13.40;9.10;;;;;;;38.66;28.59;99072.41;5070509;28;20257;-69
2023/07/25 06:43:46;;;;;;;12.73;8.10;;;;;;;38.82;28.68;99074.84;5068621;28;20192;-68
2023/07/25 06:46:13;;;;;;;15.98;10.25;;;;;;;39.01;27.95;99071.72;5070829;28;20249;-71
2023/07/25 06:48:39;;;;;;;18.35;9.75;;;;;;;38.95;28.11;99074.09;5069634;28;20626;-71
2023/07/25 06:51:07;;;;;;;10.95;8.65;;;;;;;39.07;27.80;99075.72;5067627;28;20250;-69
2023/07/25 06:53:34;;;;;;;11.15;9.27;;;;;;;39.06;27.63;99072.13;5071398;28;20204;-70
2023/07/25 06:56:01;;;;;;;13.57;9.32;;;;;;;38.73;28.36;99055.75;5071267;28;20230;-71
2023/07/25 06:58:27;;;;;;;18.27;8.98;;;;;;;38.83;28.16;99062.53;5070918;28;20196;-71
2023/07/25 07:00:54;;;;;;;18.48;9.75;;;;;;;38.80;27.69;99052.19;5070213;28;20196;-71
2023/07/25 07:03:21;;;;;;;23.83;10.10;;;;;;;39.10;27.27;99059.03;5070969;28;20675;-72
2023/07/25 07:05:54;;;;;;;11.38;10.13;;;;;;;38.79;27.65;99053.41;5071845;28;20268;-72
2023/07/25 07:08:22;;;;;;;20.15;9.50;;;;;;;38.83;27.81;99051.44;5069696;28;20188;-72
2023/07/25 07:10:53;;;;;;;12.50;9.50;;;;;;;39.00;27.34;99054.28;5066741;28;20568;-71
2023/07/25 07:13:20;;;;;;;16.92;10.38;;;;;;;39.18;27.52;99055.06;5067793;28;20204;-69
2023/07/25 07:15:47;;;;;;;20.00;9.85;;;;;;;39.13;27.46;99047.13;5060182;28;20727;-71
2023/07/25 07:18:13;;;;;;;14.82;9.73;;;;;;;39.29;27.10;99055.88;5062007;28;20184;-72
2023/07/25 07:20:40;;;;;;;10.30;9.27;;;;;;;39.15;26.92;99049.53;5063800;28;20188;-69
2023/07/25 07:23:07;;;;;;;16.15;10.00;;;;;;;38.98;27.39;99047.53;5065418;28;20659;-70
2023/07/25 07:25:36;;;;;;;14.60;9.05;;;;;;;38.75;28.05;99042.28;5059293;28;20656;-72
2023/07/25 07:28:03;;;;;;;14.35;10.15;;;;;;;38.57;28.04;99035.88;5070680;28;20188;-72
2023/07/25 07:30:30;;;;;;;15.38;9.80;;;;;;;38.73;27.63;99033.53;5069953;28;20200;-72
2023/07/25 07:32:57;;;;;;;17.35;9.85;;;;;;;38.98;27.86;99028.84;5071011;28;21014;-71
2023/07/25 07:35:24;;;;;;;18.15;9.73;;;;;;;39.13;27.56;99024.91;5071879;28;20223;-68
2023/07/25 07:37:51;;;;;;;11.20;9.95;;;;;;;39.11;27.02;99027.28;5069842;28;20188;-69
2023/07/25 07:40:17;;;;;;;13.25;9.93;;;;;;;39.08;27.32;99028.09;5060313;28;20188;-70
2023/07/25 07:42:45;;;;;;;29.85;11.23;;;;;;;39.13;27.32;99007.41;5053969;28;20197;-68
2023/07/25 07:45:12;;;;;;;19.83;9.27;;;;;;;39.23;27.19;99010.19;5056680;28;20266;-69
2023/07/25 07:47:39;;;;;;;10.95;9.52;;;;;;;39.35;27.51;99004.28;5068708;28;20195;-69
2023/07/25 07:50:07;;;;;;;20.80;11.00;;;;;;;39.19;27.59;98994.72;5071077;28;20218;-70
2023/07/25 07:52:40;;;;;;;17.45;9.93;;;;;;;39.19;27.37;98994.72;5071025;28;20243;-68
2023/07/25 07:55:07;;;;;;;10.30;9.10;;;;;;;39.31;27.10;98983.97;5071018;28;20184;-68
2023/07/25 07:57:38;;;;;;;12.82;9.15;;;;;;;39.44;26.80;98985.19;5071016;28;20191;-70
2023/07/25 08:00:08;;;;;;;15.45;10.05;;;;;;;39.41;26.53;98982.41;5070063;28;20636;-70
2023/07/25 08:02:34;;;;;;;15.63;11.55;;;;;;;39.32;26.29;98993.13;5066892;28;20192;-75
2023/07/25 08:05:01;;;;;;;24.02;11.30;;;;;;;39.25;26.61;98982.81;5070389;28;20200;-68
2023/07/25 08:07:28;;;;;;;17.92;11.13;;;;;;;39.21;27.08;98979.25;5070017;28;20199;-68
2023/07/25 08:09:55;;;;;;;23.15;10.55;;;;;;;39.24;27.25;98970.09;5069633;28;20265;-69
2023/07/25 08:12:21;;;;;;;16.48;10.73;;;;;;;39.19;27.26;98966.94;5060367;28;20597;-69
2023/07/25 08:14:48;;;;;;;13.15;9.38;;;;;;;39.21;27.02;98958.97;5068910;28;20184;-68
2023/07/25 08:17:16;;;;;;;14.65;10.38;;;;;;;39.02;27.44;98962.94;5069873;28;20280;-68
2023/07/25 08:19:43;;;;;;;16.60;10.90;;;;;;;38.80;28.01;98960.53;5069263;28;20725;-70
2023/07/25 08:22:10;;;;;;;12.15;9.38;;;;;;;38.60;28.17;98957.34;5067744;28;20683;-69
2023/07/25 08:24:37;;;;;;;13.25;9.65;;;;;;;38.75;27.83;98952.59;5069455;28;20227;-68
2023/07/25 08:27:04;;;;;;;9.85;8.75;;;;;;;38.68;27.95;98953.38;5068360;28;20196;-68
2023/07/25 08:29:31;;;;;;;17.10;10.05;;;;;;;38.79;27.79;98945.88;5070213;28;20195;-68
2023/07/25 08:31:57;;;;;;;11.80;9.68;;;;;;;38.81;28.14;98942.66;5069874;28;20253;-72
2023/07/25 08:34:25;;;;;;;16.63;10.52;;;;;;;38.64;28.36;98937.91;5070484;28;20612;-72
2023/07/25 08:36:52;;;;;;;12.55;9.38;;;;;;;38.52;28.32;98938.28;5070798;28;20191;-70
2023/07/25 08:39:19;;;;;;;10.30;9.38;;;;;;;38.34;28.81;98935.47;5070699;28;20199;-68
2023/07/25 08:41:52;;;;;;;10.77;9.30;;;;;;;38.64;28.27;98933.16;5069604;28;20245;-70
2023/07/25 08:44:21;;;;;;;18.20;9.40;;;;;;;38.82;27.71;98931.16;5063217;28;20938;-70
2023/07/25 08:46:51;;;;;;;14.70;10.02;;;;;;;38.84;26.90;98939.09;5055793;28;20679;-70
2023/07/25 08:49:24;;;;;;;17.45;9.73;;;;;;;38.98;26.71;98922.47;5067976;28;20626;-67
2023/07/25 08:51:54;;;;;;;10.32;9.10;;;;;;;39.19;26.41;98920.47;5069587;28;20195;-70
2023/07/25 08:54:29;;;;;;;14.48;8.85;;;;;;;39.30;25.93;98924.03;5070533;28;20257;-71
2023/07/25 08:56:55;;;;;;;13.07;9.20;;;;;;;39.33;26.17;98923.25;5069665;28;20655;-70
2023/07/25 08:59:23;;;;;;;10.88;9.52;;;;;;;39.14;26.16;98915.31;5069937;28;20184;-69
2023/07/25 09:01:50;;;;;;;10.75;9.60;;;;;;;39.21;26.76;98915.31;5069214;28;20184;-71
2023/07/25 09:04:17;;;;;;;11.35;9.77;;;;;;;39.35;26.46;98908.97;5070468;28;20184;-70
2023/07/25 09:06:43;;;;;;;12.77;8.95;;;;;;;39.18;26.89;98899.41;5071713;28;20242;-70
2023/07/25 09:09:12;;;;;;;13.95;8.60;;;;;;;39.30;26.92;98904.56;5070235;28;20200;-68
2023/07/25 09:11:38;;;;;;;16.08;8.90;;;;;;;39.44;27.01;98904.53;5070418;28;20234;-69
2023/07/25 09:14:05;;;;;;;12.15;9.85;;;;;;;39.57;26.86;98893.78;5069638;28;20224;-69
2023/07/25 09:16:32;;;;;;;13.63;8.85;;;;;;;39.73;27.10;98897.69;5071067;28;20196;-69
2023/07/25 09:18:59;;;;;;;10.18;9.10;;;;;;;39.86;26.74;98887.75;5070684;28;20203;-69
2023/07/25 09:21:26;;;;;;;11.00;9.98;;;;;;;39.41;27.59;98883.13;5070826;28;20279;-69
2023/07/25 09:23:53;;;;;;;16.08;9.35;;;;;;;39.19;27.91;98889.09;5070595;28;20277;-69
2023/07/25 09:26:23;;;;;;;10.48;9.45;;;;;;;39.44;27.57;98879.53;5069928;28;20196;-67
2023/07/25 09:28:51;;;;;;;15.25;10.35;;;;;;;39.60;27.68;98877.09;5066594;28;20277;-69
2023/07/25 09:31:19;;;;;;;10.75;9.77;;;;;;;39.65;27.73;98871.13;5058489;28;20188;-68
2023/07/25 09:33:48;;;;;;;10.95;9.93;;;;;;;39.78;27.82;98872.28;5061407;28;20216;-69
2023/07/25 09:36:15;;;;;;;10.77;9.85;;;;;;;39.81;27.11;98870.69;5056944;28;20307;-69
2023/07/25 09:38:49;;;;;;;10.45;9.38;;;;;;;39.63;27.05;98869.91;5072068;28;20196;-70
2023/07/25 09:41:16;;;;;;;17.80;9.82;;;;;;;39.42;27.71;98865.25;5074451;28;20275;-69
2023/07/25 09:43:44;;;;;;;13.00;9.23;;;;;;;38.92;27.81;98880.41;5073450;28;20192;-68
2023/07/25 09:46:12;;;;;;;9.88;8.98;;;;;;;39.06;27.97;98862.94;5072481;28;20195;-68
2023/07/25 09:48:44;;;;;;;11.05;9.95;;;;;;;38.96;27.72;98858.97;5069494;28;20196;-68
2023/07/25 09:51:12;;;;;;;10.35;9.27;;;;;;;38.99;27.33;98869.25;5074314;28;20249;-69
2023/07/25 09:53:39;;;;;;;11.90;9.82;;;;;;;39.04;27.13;98857.78;5074053;28;20299;-69
2023/07/25 09:56:07;;;;;;;15.68;10.38;;;;;;;39.20;26.76;98855.34;5073613;28;20196;-70
2023/07/25 09:58:34;;;;;;;11.57;10.00;;;;;;;38.85;27.84;98860.94;5073411;28;20265;-68
2023/07/25 10:01:03;;;;;;;10.20;9.27;;;;;;;38.49;28.07;98862.13;5073842;28;20196;-68
2023/07/25 10:03:31;;;;;;;13.18;10.05;;;;;;;38.46;27.89;98857.31;5073959;28;20259;-68
2023/07/25 10:05:58;;;;;;;11.35;10.13;;;;;;;38.74;27.78;98849.03;5073018;28;20245;-69
2023/07/25 10:08:26;;;;;;;15.82;10.90;;;;;;;38.88;27.63;98843.47;5073213;28;20752;-68
2023/07/25 10:10:55;;;;;;;16.67;11.15;;;;;;;38.58;27.78;98834.75;5073461;28;20192;-70
2023/07/25 10:13:22;;;;;;;21.15;11.48;;;;;;;38.38;28.17;98836.31;5072188;28;20222;-69
2023/07/25 10:15:50;;;;;;;17.95;11.27;;;;;;;38.50;28.09;98829.59;5068725;28;20238;-69
2023/07/25 10:18:22;;;;;;;15.63;11.15;;;;;;;38.74;27.61;98826.81;5061111;28;20192;-69
2023/07/25 10:20:49;;;;;;;17.55;11.38;;;;;;;38.35;27.80;98828.78;5069763;28;20250;-68
2023/07/25 10:23:16;;;;;;;23.20;11.63;;;;;;;38.46;27.57;98829.56;5063447;28;20196;-68
2023/07/25 10:25:43;;;;;;;17.67;10.90;;;;;;;38.46;28.00;98810.13;5063605;28;20196;-68
2023/07/25 10:28:11;;;;;;;30.33;11.32;;;;;;;38.78;27.40;98822.03;5062050;28;20730;-68
2023/07/25 10:30:42;;;;;;;18.20;11.40;;;;;;;38.96;27.07;98814.53;5060101;28;20185;-69
2023/07/25 10:33:09;;;;;;;16.08;11.38;;;;;;;39.10;26.96;98813.66;5072432;28;20211;-68
2023/07/25 10:35:43;;;;;;;12.30;11.00;;;;;;;39.30;26.70;98804.47;5068094;28;20219;-69
2023/07/25 10:38:11;;;;;;;23.05;11.48;;;;;;;39.08;27.04;98800.19;5070014;28;20692;-68
2023/07/25 10:40:55;;;;;;;13.75;10.77;;;;;;;39.14;26.76;98793.03;5070275;28;20249;-68
2023/07/25 10:43:27;;;;;;;19.33;10.73;;;;;;;38.99;27.51;98780.34;5055937;28;20185;-72
2023/07/25 10:45:55;;;;;;;13.82;10.63;;;;;;;39.13;27.50;98774.78;5070576;28;20660;-69
2023/07/25 10:48:45;;;;;;;14.02;9.77;;;;;;;39.29;26.93;98771.53;5071707;28;20231;-72
2023/07/25 10:51:15;;;;;;;15.88;11.15;;;;;;;39.35;27.43;98762.38;5072468;28;20206;-69
2023/07/25 10:53:42;;;;;;;14.20;11.23;;;;;;;39.16;27.52;98762.06;5072717;28;20215;-71
2023/07/25 10:56:13;;;;;;;11.55;10.48;;;;;;;39.27;27.07;98760.81;5071873;28;20191;-69
2023/07/25 10:59:01;;;;;;;17.42;10.35;;;;;;;39.44;27.11;98757.19;5070584;28;20196;-69
2023/07/25 11:01:42;;;;;;;21.75;10.98;;;;;;;38.97;28.60;98743.06;5068702;28;20194;-70
2023/07/25 11:04:30;;;;;;;12.93;10.68;;;;;;;39.33;27.42;98744.50;5064002;28;20269;-69
2023/07/25 11:06:59;;;;;;;15.20;10.52;;;;;;;39.54;26.64;98725.75;5069988;28;20196;-68
2023/07/25 11:09:27;;;;;;;11.48;10.27;;;;;;;39.24;26.80;98731.06;5066054;28;20223;-71
2023/07/25 11:11:56;;;;;;;13.40;9.95;;;;;;;39.34;26.91;98733.00;5071214;28;20196;-68
2023/07/25 11:14:23;;;;;;;15.25;10.60;;;;;;;39.38;26.71;98719.88;5071563;28;20224;-67
2023/07/25 11:16:51;;;;;;;11.07;9.85;;;;;;;39.52;26.97;98719.78;5072034;28;20283;-66
2023/07/25 11:19:19;;;;;;;13.10;9.82;;;;;;;39.47;27.19;98717.44;5071952;28;20223;-68
2023/07/25 11:21:46;;;;;;;11.10;9.77;;;;;;;39.28;27.27;98709.59;5070946;28;20199;-67